sensor_id;sensor_type;location;lat;lon;timestamp;pressure;altitude;pressure_sealevel;temperature;humidity
16255;BME280;8235;52.198;9.904;2023-02-01T00:00:52;100790.88;;;4.50;82.43
16255;BME280;8235;52.198;9.904;2023-02-01T00:03:19;100801.44;;;4.50;82.10
16255;BME280;8235;52.198;9.904;2023-02-01T00:05:55;100797.06;;;4.49;82.59
16255;BME280;8235;52.198;9.904;2023-02-01T00:08:21;100798.94;;;4.47;82.63
16255;BME280;8235;52.198;9.904;2023-02-01T00:10:48;100795.34;;;4.48;82.75
16255;BME280;8235;52.198;9.904;2023-02-01T00:13:14;100789.22;;;4.48;82.71
16255;BME280;8235;52.198;9.904;2023-02-01T00:15:42;100783.94;;;4.48;82.60
16255;BME280;8235;52.198;9.904;2023-02-01T00:18:09;100777.91;;;4.46;82.70
16255;BME280;8235;52.198;9.904;2023-02-01T00:20:35;100783.16;;;4.46;82.81
16255;BME280;8235;52.198;9.904;2023-02-01T00:23:01;100787.53;;;4.47;83.00
16255;BME280;8235;52.198;9.904;2023-02-01T00:25:28;100775.34;;;4.43;83.04
16255;BME280;8235;52.198;9.904;2023-02-01T00:27:54;100775.34;;;4.43;82.94
16255;BME280;8235;52.198;9.904;2023-02-01T00:30:23;100773.63;;;4.42;83.34
16255;BME280;8235;52.198;9.904;2023-02-01T00:32:51;100782.47;;;4.41;83.38
16255;BME280;8235;52.198;9.904;2023-02-01T00:35:18;100774.56;;;4.41;83.13
16255;BME280;8235;52.198;9.904;2023-02-01T00:37:44;100762.28;;;4.40;83.28
16255;BME280;8235;52.198;9.904;2023-02-01T00:40:12;100772.06;;;4.36;83.72
16255;BME280;8235;52.198;9.904;2023-02-01T00:42:38;100766.78;;;4.36;83.69
16255;BME280;8235;52.198;9.904;2023-02-01T00:45:06;100769.50;;;4.35;83.37
16255;BME280;8235;52.198;9.904;2023-02-01T00:47:32;100774.81;;;4.33;83.25
16255;BME280;8235;52.198;9.904;2023-02-01T00:50:00;100769.53;;;4.33;83.31
16255;BME280;8235;52.198;9.904;2023-02-01T00:52:26;100776.59;;;4.33;83.41
16255;BME280;8235;52.198;9.904;2023-02-01T00:54:53;100759.00;;;4.33;83.50
16255;BME280;8235;52.198;9.904;2023-02-01T00:57:19;100762.53;;;4.32;83.67
16255;BME280;8235;52.198;9.904;2023-02-01T00:59:46;100757.28;;;4.32;83.41
16255;BME280;8235;52.198;9.904;2023-02-01T01:02:12;100758.19;;;4.31;83.57
16255;BME280;8235;52.198;9.904;2023-02-01T01:04:41;100758.28;;;4.30;83.52
16255;BME280;8235;52.198;9.904;2023-02-01T01:07:08;100761.00;;;4.27;83.49
16255;BME280;8235;52.198;9.904;2023-02-01T01:09:35;100755.84;;;4.24;83.87
16255;BME280;8235;52.198;9.904;2023-02-01T01:12:02;100746.22;;;4.23;83.65
16255;BME280;8235;52.198;9.904;2023-02-01T01:14:28;100743.53;;;4.24;83.99
16255;BME280;8235;52.198;9.904;2023-02-01T01:16:54;100737.50;;;4.21;83.81
16255;BME280;8235;52.198;9.904;2023-02-01T01:19:21;100738.31;;;4.23;83.85
16255;BME280;8235;52.198;9.904;2023-02-01T01:21:47;100748.91;;;4.21;83.54
16255;BME280;8235;52.198;9.904;2023-02-01T01:24:15;100741.13;;;4.16;83.69
16255;BME280;8235;52.198;9.904;2023-02-01T01:26:42;100744.69;;;4.15;83.83
16255;BME280;8235;52.198;9.904;2023-02-01T01:29:09;100744.69;;;4.15;84.10
16255;BME280;8235;52.198;9.904;2023-02-01T01:31:35;100739.41;;;4.15;84.05
16255;BME280;8235;52.198;9.904;2023-02-01T01:34:02;100735.00;;;4.16;83.75
16255;BME280;8235;52.198;9.904;2023-02-01T01:36:28;100741.19;;;4.15;83.97
16255;BME280;8235;52.198;9.904;2023-02-01T01:38:55;100732.44;;;4.14;84.24
16255;BME280;8235;52.198;9.904;2023-02-01T01:41:24;100732.47;;;4.13;84.06
16255;BME280;8235;52.198;9.904;2023-02-01T01:43:55;100726.44;;;4.11;84.02
16255;BME280;8235;52.198;9.904;2023-02-01T01:46:24;100732.63;;;4.10;84.13
16255;BME280;8235;52.198;9.904;2023-02-01T01:48:56;100728.19;;;4.10;84.22
16255;BME280;8235;52.198;9.904;2023-02-01T01:51:24;100724.72;;;4.10;84.07
16255;BME280;8235;52.198;9.904;2023-02-01T01:53:57;100724.72;;;4.10;84.26
16255;BME280;8235;52.198;9.904;2023-02-01T01:56:27;100728.25;;;4.09;84.02
16255;BME280;8235;52.198;9.904;2023-02-01T01:58:54;100723.84;;;4.09;84.16
16255;BME280;8235;52.198;9.904;2023-02-01T02:01:21;100722.13;;;4.08;84.18
16255;BME280;8235;52.198;9.904;2023-02-01T02:03:48;100722.13;;;4.08;84.40
16255;BME280;8235;52.198;9.904;2023-02-01T02:06:23;100701.94;;;4.07;84.18
16255;BME280;8235;52.198;9.904;2023-02-01T02:08:52;100711.56;;;4.08;84.13
16255;BME280;8235;52.198;9.904;2023-02-01T02:11:19;100709.91;;;4.06;84.69
16255;BME280;8235;52.198;9.904;2023-02-01T02:13:49;100709.16;;;4.02;84.54
16255;BME280;8235;52.198;9.904;2023-02-01T02:16:23;100716.94;;;4.05;84.73
16255;BME280;8235;52.198;9.904;2023-02-01T02:19:04;100708.25;;;4.03;84.49
16255;BME280;8235;52.198;9.904;2023-02-01T02:21:48;100703.06;;;4.00;84.66
16255;BME280;8235;52.198;9.904;2023-02-01T02:24:38;100707.47;;;4.00;84.83
16255;BME280;8235;52.198;9.904;2023-02-01T02:27:22;100709.25;;;3.99;85.54
16255;BME280;8235;52.198;9.904;2023-02-01T02:33:24;100702.06;;;4.04;85.10
16255;BME280;8235;52.198;9.904;2023-02-01T02:36:00;100687.97;;;4.05;85.54
16255;BME280;8235;52.198;9.904;2023-02-01T02:38:33;100698.47;;;4.07;84.92
16255;BME280;8235;52.198;9.904;2023-02-01T02:41:10;100682.63;;;4.07;85.56
16255;BME280;8235;52.198;9.904;2023-02-01T02:44:01;100685.22;;;4.08;85.24
16255;BME280;8235;52.198;9.904;2023-02-01T02:46:50;100685.28;;;4.07;85.71
16255;BME280;8235;52.198;9.904;2023-02-01T02:49:41;100687.81;;;4.10;85.99
16255;BME280;8235;52.198;9.904;2023-02-01T02:52:31;100675.50;;;4.10;85.65
16255;BME280;8235;52.198;9.904;2023-02-01T02:55:17;100669.31;;;4.11;85.82
16255;BME280;8235;52.198;9.904;2023-02-01T02:57:46;100666.59;;;4.13;85.67
16255;BME280;8235;52.198;9.904;2023-02-01T03:00:32;100649.81;;;4.15;85.45
16255;BME280;8235;52.198;9.904;2023-02-01T03:03:17;100651.53;;;4.16;85.42
16255;BME280;8235;52.198;9.904;2023-02-01T03:06:03;100644.59;;;4.14;85.56
16255;BME280;8235;52.198;9.904;2023-02-01T03:08:31;100642.69;;;4.17;85.31
16255;BME280;8235;52.198;9.904;2023-02-01T03:11:00;100640.06;;;4.17;85.41
16255;BME280;8235;52.198;9.904;2023-02-01T03:13:35;100635.53;;;4.21;85.29
16255;BME280;8235;52.198;9.904;2023-02-01T03:16:07;100639.84;;;4.24;85.33
16255;BME280;8235;52.198;9.904;2023-02-01T03:18:45;100611.75;;;4.23;85.06
16255;BME280;8235;52.198;9.904;2023-02-01T03:21:16;100628.38;;;4.25;84.91
16255;BME280;8235;52.198;9.904;2023-02-01T03:23:46;100626.56;;;4.27;85.40
16255;BME280;8235;52.198;9.904;2023-02-01T03:26:17;100612.47;;;4.28;85.31
16255;BME280;8235;52.198;9.904;2023-02-01T03:28:48;100615.03;;;4.29;84.77
16255;BME280;8235;52.198;9.904;2023-02-01T03:31:17;100609.75;;;4.29;84.72
16255;BME280;8235;52.198;9.904;2023-02-01T03:33:44;100614.28;;;4.26;85.12
16255;BME280;8235;52.198;9.904;2023-02-01T03:36:17;100615.03;;;4.29;85.32
16255;BME280;8235;52.198;9.904;2023-02-01T03:38:50;100612.22;;;4.34;85.07
16255;BME280;8235;52.198;9.904;2023-02-01T03:41:22;100611.19;;;4.38;85.52
16255;BME280;8235;52.198;9.904;2023-02-01T03:43:54;100604.97;;;4.39;85.14
16255;BME280;8235;52.198;9.904;2023-02-01T03:46:27;100604.13;;;4.38;85.50
16255;BME280;8235;52.198;9.904;2023-02-01T03:49:00;100596.16;;;4.40;85.66
16255;BME280;8235;52.198;9.904;2023-02-01T03:51:29;100603.09;;;4.42;85.35
16255;BME280;8235;52.198;9.904;2023-02-01T03:53:57;100598.63;;;4.44;85.89
16255;BME280;8235;52.198;9.904;2023-02-01T03:56:25;100592.50;;;4.44;86.16
16255;BME280;8235;52.198;9.904;2023-02-01T03:58:53;100578.38;;;4.45;86.00
16255;BME280;8235;52.198;9.904;2023-02-01T04:01:27;100580.97;;;4.46;85.95
16255;BME280;8235;52.198;9.904;2023-02-01T04:03:54;100574.03;;;4.44;87.00
16255;BME280;8235;52.198;9.904;2023-02-01T04:06:21;100566.13;;;4.44;86.95
16255;BME280;8235;52.198;9.904;2023-02-01T04:08:49;100568.81;;;4.42;87.10
16255;BME280;8235;52.198;9.904;2023-02-01T04:11:17;100565.25;;;4.43;87.03
16255;BME280;8235;52.198;9.904;2023-02-01T04:13:44;100558.22;;;4.44;87.24
16255;BME280;8235;52.198;9.904;2023-02-01T04:16:10;100553.06;;;4.41;87.80
16255;BME280;8235;52.198;9.904;2023-02-01T04:18:37;100547.09;;;4.36;88.18
16255;BME280;8235;52.198;9.904;2023-02-01T04:21:04;100562.00;;;4.37;88.65
16255;BME280;8235;52.198;9.904;2023-02-01T04:23:30;100551.56;;;4.34;88.33
16255;BME280;8235;52.198;9.904;2023-02-01T04:26:01;100558.63;;;4.33;89.01
16255;BME280;8235;52.198;9.904;2023-02-01T04:28:28;100550.66;;;4.35;89.05
16255;BME280;8235;52.198;9.904;2023-02-01T04:30:54;100541.81;;;4.36;89.16
16255;BME280;8235;52.198;9.904;2023-02-01T04:33:21;100538.25;;;4.37;89.28
16255;BME280;8235;52.198;9.904;2023-02-01T04:35:47;100546.28;;;4.34;89.46
16255;BME280;8235;52.198;9.904;2023-02-01T04:38:14;100526.06;;;4.34;89.44
16255;BME280;8235;52.198;9.904;2023-02-01T04:40:40;100531.28;;;4.36;89.17
16255;BME280;8235;52.198;9.904;2023-02-01T04:43:08;100523.38;;;4.36;89.49
16255;BME280;8235;52.198;9.904;2023-02-01T04:45:35;100530.41;;;4.35;89.44
16255;BME280;8235;52.198;9.904;2023-02-01T04:48:01;100526.81;;;4.38;88.89
16255;BME280;8235;52.198;9.904;2023-02-01T04:50:27;100511.78;;;4.40;88.71
16255;BME280;8235;52.198;9.904;2023-02-01T04:52:54;100522.28;;;4.41;88.72
16255;BME280;8235;52.198;9.904;2023-02-01T04:55:20;100516.06;;;4.42;88.69
16255;BME280;8235;52.198;9.904;2023-02-01T04:57:47;100508.97;;;4.44;88.44
16255;BME280;8235;52.198;9.904;2023-02-01T05:00:15;100506.28;;;4.46;88.72
16255;BME280;8235;52.198;9.904;2023-02-01T05:02:42;100500.09;;;4.47;88.41
16255;BME280;8235;52.198;9.904;2023-02-01T05:05:08;100491.31;;;4.46;87.87
16255;BME280;8235;52.198;9.904;2023-02-01T05:07:35;100484.25;;;4.47;87.83
16255;BME280;8235;52.198;9.904;2023-02-01T05:10:01;100498.22;;;4.49;88.09
16255;BME280;8235;52.198;9.904;2023-02-01T05:12:29;100495.56;;;4.49;88.05
16255;BME280;8235;52.198;9.904;2023-02-01T05:15:14;100504.41;;;4.48;88.01
16255;BME280;8235;52.198;9.904;2023-02-01T05:17:41;100492.94;;;4.49;87.88
16255;BME280;8235;52.198;9.904;2023-02-01T05:20:09;100488.47;;;4.51;87.89
16255;BME280;8235;52.198;9.904;2023-02-01T05:22:35;100487.53;;;4.52;88.35
16255;BME280;8235;52.198;9.904;2023-02-01T05:25:02;100484.97;;;4.50;87.94
16255;BME280;8235;52.198;9.904;2023-02-01T05:27:29;100484.97;;;4.50;88.26
16255;BME280;8235;52.198;9.904;2023-02-01T05:29:56;100484.03;;;4.51;88.13
16255;BME280;8235;52.198;9.904;2023-02-01T05:32:23;100476.19;;;4.50;88.41
16255;BME280;8235;52.198;9.904;2023-02-01T05:34:50;100470.97;;;4.48;88.64
16255;BME280;8235;52.198;9.904;2023-02-01T05:37:16;100478.03;;;4.48;88.17
16255;BME280;8235;52.198;9.904;2023-02-01T05:39:45;100481.63;;;4.47;88.51
16255;BME280;8235;52.198;9.904;2023-02-01T05:42:12;100474.47;;;4.49;88.44
16255;BME280;8235;52.198;9.904;2023-02-01T05:44:38;100481.53;;;4.48;88.86
16255;BME280;8235;52.198;9.904;2023-02-01T05:47:04;100470.34;;;4.43;89.15
16255;BME280;8235;52.198;9.904;2023-02-01T05:49:32;100484.44;;;4.42;88.93
16255;BME280;8235;52.198;9.904;2023-02-01T05:51:59;100486.94;;;4.45;88.84
16255;BME280;8235;52.198;9.904;2023-02-01T05:54:25;100485.28;;;4.43;88.88
16255;BME280;8235;52.198;9.904;2023-02-01T05:56:52;100478.19;;;4.45;89.35
16255;BME280;8235;52.198;9.904;2023-02-01T05:59:18;100476.34;;;4.47;88.83
16255;BME280;8235;52.198;9.904;2023-02-01T06:01:45;100465.81;;;4.47;89.16
16255;BME280;8235;52.198;9.904;2023-02-01T06:04:11;100458.66;;;4.49;89.35
16255;BME280;8235;52.198;9.904;2023-02-01T06:06:39;100461.22;;;4.50;89.11
16255;BME280;8235;52.198;9.904;2023-02-01T06:09:06;100455.91;;;4.52;89.03
16255;BME280;8235;52.198;9.904;2023-02-01T06:11:32;100468.28;;;4.50;88.91
16255;BME280;8235;52.198;9.904;2023-02-01T06:13:59;100452.41;;;4.51;89.02
16255;BME280;8235;52.198;9.904;2023-02-01T06:16:27;100463.56;;;4.58;88.92
16255;BME280;8235;52.198;9.904;2023-02-01T06:18:53;100457.44;;;4.58;88.79
16255;BME280;8235;52.198;9.904;2023-02-01T06:21:20;100452.22;;;4.56;89.08
16255;BME280;8235;52.198;9.904;2023-02-01T06:23:50;100456.56;;;4.57;88.83
16255;BME280;8235;52.198;9.904;2023-02-01T06:26:17;100447.84;;;4.55;88.63
16255;BME280;8235;52.198;9.904;2023-02-01T06:28:44;100446.13;;;4.54;89.18
16255;BME280;8235;52.198;9.904;2023-02-01T06:31:10;100452.28;;;4.54;89.56
16255;BME280;8235;52.198;9.904;2023-02-01T06:33:37;100446.94;;;4.56;89.35
16255;BME280;8235;52.198;9.904;2023-02-01T06:36:06;100438.16;;;4.56;89.55
16255;BME280;8235;52.198;9.904;2023-02-01T06:38:33;100442.59;;;4.55;89.72
16255;BME280;8235;52.198;9.904;2023-02-01T06:41:02;100449.56;;;4.56;89.59
16255;BME280;8235;52.198;9.904;2023-02-01T06:43:29;100446.88;;;4.58;89.48
16255;BME280;8235;52.198;9.904;2023-02-01T06:45:59;100447.06;;;4.53;89.64
16255;BME280;8235;52.198;9.904;2023-02-01T06:48:26;100468.22;;;4.51;90.08
16255;BME280;8235;52.198;9.904;2023-02-01T06:50:52;100471.72;;;4.52;90.18
16255;BME280;8235;52.198;9.904;2023-02-01T06:53:19;100481.47;;;4.50;90.26
16255;BME280;8235;52.198;9.904;2023-02-01T06:55:52;100479.84;;;4.47;90.57
16255;BME280;8235;52.198;9.904;2023-02-01T06:58:20;100487.75;;;4.47;90.81
16255;BME280;8235;52.198;9.904;2023-02-01T07:00:47;100463.22;;;4.45;91.69
16255;BME280;8235;52.198;9.904;2023-02-01T07:03:13;100478.31;;;4.42;91.83
16255;BME280;8235;52.198;9.904;2023-02-01T07:05:40;100491.44;;;4.43;91.80
16255;BME280;8235;52.198;9.904;2023-02-01T07:08:06;100485.28;;;4.43;92.04
16255;BME280;8235;52.198;9.904;2023-02-01T07:10:34;100506.44;;;4.41;92.31
16255;BME280;8235;52.198;9.904;2023-02-01T07:13:00;100510.00;;;4.40;93.13
16255;BME280;8235;52.198;9.904;2023-02-01T07:15:28;100503.00;;;4.39;93.03
16255;BME280;8235;52.198;9.904;2023-02-01T07:17:55;100503.81;;;4.41;93.17
16255;BME280;8235;52.198;9.904;2023-02-01T07:20:22;100497.69;;;4.41;93.22
16255;BME280;8235;52.198;9.904;2023-02-01T07:22:48;100503.00;;;4.39;93.18
16255;BME280;8235;52.198;9.904;2023-02-01T07:25:15;100506.63;;;4.37;94.20
16255;BME280;8235;52.198;9.904;2023-02-01T07:27:41;100511.91;;;4.37;94.28
16255;BME280;8235;52.198;9.904;2023-02-01T07:30:09;100509.19;;;4.38;94.06
16255;BME280;8235;52.198;9.904;2023-02-01T07:32:37;100501.28;;;4.38;94.52
16255;BME280;8235;52.198;9.904;2023-02-01T07:35:04;100501.13;;;4.43;94.52
16255;BME280;8235;52.198;9.904;2023-02-01T07:37:31;100496.69;;;4.43;94.10
16255;BME280;8235;52.198;9.904;2023-02-01T07:39:57;100495.09;;;4.39;94.05
16255;BME280;8235;52.198;9.904;2023-02-01T07:42:23;100505.72;;;4.38;94.24
16255;BME280;8235;52.198;9.904;2023-02-01T07:44:50;100503.06;;;4.38;94.21
16255;BME280;8235;52.198;9.904;2023-02-01T07:47:16;100485.47;;;4.38;94.46
16255;BME280;8235;52.198;9.904;2023-02-01T07:49:44;100494.19;;;4.40;94.35
16255;BME280;8235;52.198;9.904;2023-02-01T07:52:10;100501.91;;;4.45;93.75
16255;BME280;8235;52.198;9.904;2023-02-01T07:54:38;100503.56;;;4.47;93.86
16255;BME280;8235;52.198;9.904;2023-02-01T07:57:04;100514.78;;;4.52;93.73
16255;BME280;8235;52.198;9.904;2023-02-01T07:59:31;100514.66;;;4.56;93.46
16255;BME280;8235;52.198;9.904;2023-02-01T08:01:57;100510.19;;;4.58;93.00
16255;BME280;8235;52.198;9.904;2023-02-01T08:04:23;100514.47;;;4.60;93.11
16255;BME280;8235;52.198;9.904;2023-02-01T08:06:50;100505.53;;;4.64;92.88
16255;BME280;8235;52.198;9.904;2023-02-01T08:09:17;100513.38;;;4.66;92.58
16255;BME280;8235;52.198;9.904;2023-02-01T08:11:43;100519.41;;;4.68;92.14
16255;BME280;8235;52.198;9.904;2023-02-01T08:14:10;100514.09;;;4.69;92.30
16255;BME280;8235;52.198;9.904;2023-02-01T08:16:36;100528.06;;;4.71;91.77
16255;BME280;8235;52.198;9.904;2023-02-01T08:19:04;100529.72;;;4.74;91.80
16255;BME280;8235;52.198;9.904;2023-02-01T08:21:30;100532.25;;;4.77;91.73
16255;BME280;8235;52.198;9.904;2023-02-01T08:24:04;100528.69;;;4.78;91.42
16255;BME280;8235;52.198;9.904;2023-02-01T08:26:30;100526.78;;;4.81;91.02
16255;BME280;8235;52.198;9.904;2023-02-01T08:28:59;100529.44;;;4.81;91.22
16255;BME280;8235;52.198;9.904;2023-02-01T08:31:28;100532.00;;;4.83;90.94
16255;BME280;8235;52.198;9.904;2023-02-01T08:33:56;100538.13;;;4.83;90.75
16255;BME280;8235;52.198;9.904;2023-02-01T08:36:25;100540.63;;;4.86;90.06
16255;BME280;8235;52.198;9.904;2023-02-01T08:38:52;100540.63;;;4.86;90.58
16255;BME280;8235;52.198;9.904;2023-02-01T08:41:21;100554.63;;;4.88;90.42
16255;BME280;8235;52.198;9.904;2023-02-01T08:43:48;100541.41;;;4.88;90.12
16255;BME280;8235;52.198;9.904;2023-02-01T08:46:16;100535.22;;;4.89;89.73
16255;BME280;8235;52.198;9.904;2023-02-01T08:48:42;100538.53;;;4.95;89.48
16255;BME280;8235;52.198;9.904;2023-02-01T08:51:11;100539.34;;;4.97;89.35
16255;BME280;8235;52.198;9.904;2023-02-01T08:53:40;100544.56;;;4.98;89.05
16255;BME280;8235;52.198;9.904;2023-02-01T08:56:07;100551.50;;;5.01;89.10
16255;BME280;8235;52.198;9.904;2023-02-01T08:58:35;100541.69;;;5.03;88.80
16255;BME280;8235;52.198;9.904;2023-02-01T09:01:03;100537.16;;;5.06;88.44
16255;BME280;8235;52.198;9.904;2023-02-01T09:03:30;100545.81;;;5.10;87.73
16255;BME280;8235;52.198;9.904;2023-02-01T09:06:00;100542.13;;;5.14;87.40
16255;BME280;8235;52.198;9.904;2023-02-01T09:08:26;100543.78;;;5.16;87.18
16255;BME280;8235;52.198;9.904;2023-02-01T09:10:53;100541.84;;;5.20;86.90
16255;BME280;8235;52.198;9.904;2023-02-01T09:13:19;100551.47;;;5.21;86.47
16255;BME280;8235;52.198;9.904;2023-02-01T09:15:50;100547.00;;;5.23;86.25
16255;BME280;8235;52.198;9.904;2023-02-01T09:18:16;100542.44;;;5.27;85.72
16255;BME280;8235;52.198;9.904;2023-02-01T09:20:43;100520.19;;;5.32;85.56
16255;BME280;8235;52.198;9.904;2023-02-01T09:23:09;100553.38;;;5.38;85.16
16255;BME280;8235;52.198;9.904;2023-02-01T09:25:37;100530.22;;;5.44;84.98
16255;BME280;8235;52.198;9.904;2023-02-01T09:28:04;100536.16;;;5.49;85.03
16255;BME280;8235;52.198;9.904;2023-02-01T09:30:31;100550.16;;;5.51;84.48
16255;BME280;8235;52.198;9.904;2023-02-01T09:32:59;100557.09;;;5.54;84.11
16255;BME280;8235;52.198;9.904;2023-02-01T09:35:25;100541.25;;;5.54;84.35
16255;BME280;8235;52.198;9.904;2023-02-01T09:37:52;100541.09;;;5.57;84.39
16255;BME280;8235;52.198;9.904;2023-02-01T09:40:19;100547.94;;;5.61;84.41
16255;BME280;8235;52.198;9.904;2023-02-01T09:42:59;100546.25;;;5.60;84.41
16255;BME280;8235;52.198;9.904;2023-02-01T09:45:34;100569.09;;;5.61;84.68
16255;BME280;8235;52.198;9.904;2023-02-01T09:48:11;100548.81;;;5.62;84.68
16255;BME280;8235;52.198;9.904;2023-02-01T09:50:42;100556.59;;;5.65;84.54
16255;BME280;8235;52.198;9.904;2023-02-01T09:53:13;100554.81;;;5.65;84.63
16255;BME280;8235;52.198;9.904;2023-02-01T09:55:43;100552.13;;;5.67;84.17
16255;BME280;8235;52.198;9.904;2023-02-01T09:58:14;100558.19;;;5.69;84.00
16255;BME280;8235;52.198;9.904;2023-02-01T10:00:46;100544.00;;;5.71;83.51
16255;BME280;8235;52.198;9.904;2023-02-01T10:03:16;100547.41;;;5.73;83.48
16255;BME280;8235;52.198;9.904;2023-02-01T10:06:06;100567.53;;;5.76;83.85
16255;BME280;8235;52.198;9.904;2023-02-01T10:08:54;100548.06;;;5.78;83.18
16255;BME280;8235;52.198;9.904;2023-02-01T10:11:29;100552.34;;;5.81;83.28
16255;BME280;8235;52.198;9.904;2023-02-01T10:14:21;100546.13;;;5.82;82.80
16255;BME280;8235;52.198;9.904;2023-02-01T10:17:00;100551.44;;;5.82;82.24
16255;BME280;8235;52.198;9.904;2023-02-01T10:19:39;100539.94;;;5.83;82.21
16255;BME280;8235;52.198;9.904;2023-02-01T10:22:10;100543.38;;;5.85;82.02
16255;BME280;8235;52.198;9.904;2023-02-01T10:24:41;100542.38;;;5.87;82.12
16255;BME280;8235;52.198;9.904;2023-02-01T10:27:14;100531.59;;;5.92;82.11
16255;BME280;8235;52.198;9.904;2023-02-01T10:29:44;100530.53;;;5.96;81.48
16255;BME280;8235;52.198;9.904;2023-02-01T10:32:16;100528.63;;;6.00;81.36
16255;BME280;8235;52.198;9.904;2023-02-01T10:34:50;100523.25;;;6.01;80.80
16255;BME280;8235;52.198;9.904;2023-02-01T10:37:24;100525.69;;;6.06;80.87
16255;BME280;8235;52.198;9.904;2023-02-01T10:39:54;100524.69;;;6.08;80.69
16255;BME280;8235;52.198;9.904;2023-02-01T10:42:24;100518.44;;;6.09;79.99
16255;BME280;8235;52.198;9.904;2023-02-01T10:44:53;100528.88;;;6.12;79.69
16255;BME280;8235;52.198;9.904;2023-02-01T10:47:20;100529.69;;;6.14;79.45
16255;BME280;8235;52.198;9.904;2023-02-01T10:49:53;100523.38;;;6.17;79.33
16255;BME280;8235;52.198;9.904;2023-02-01T10:52:31;100516.19;;;6.20;79.31
16255;BME280;8235;52.198;9.904;2023-02-01T10:55:27;100529.41;;;6.20;79.07
16255;BME280;8235;52.198;9.904;2023-02-01T10:57:59;100518.69;;;6.23;78.54
16255;BME280;8235;52.198;9.904;2023-02-01T11:00:26;100515.19;;;6.23;77.81
16255;BME280;8235;52.198;9.904;2023-02-01T11:02:53;100512.47;;;6.24;77.53
16255;BME280;8235;52.198;9.904;2023-02-01T11:05:24;100500.09;;;6.25;77.47
16255;BME280;8235;52.198;9.904;2023-02-01T11:07:53;100513.25;;;6.26;77.93
16255;BME280;8235;52.198;9.904;2023-02-01T11:10:38;100509.81;;;6.24;77.25
16255;BME280;8235;52.198;9.904;2023-02-01T11:13:13;100507.09;;;6.26;77.45
16255;BME280;8235;52.198;9.904;2023-02-01T11:15:43;100491.13;;;6.27;77.26
16255;BME280;8235;52.198;9.904;2023-02-01T11:18:16;100494.63;;;6.28;76.90
16255;BME280;8235;52.198;9.904;2023-02-01T11:20:44;100491.91;;;6.30;76.79
16255;BME280;8235;52.198;9.904;2023-02-01T11:23:16;100501.56;;;6.31;76.78
16255;BME280;8235;52.198;9.904;2023-02-01T11:25:51;100491.00;;;6.31;76.85
16255;BME280;8235;52.198;9.904;2023-02-01T11:28:18;100484.84;;;6.30;76.44
16255;BME280;8235;52.198;9.904;2023-02-01T11:30:47;100487.41;;;6.32;76.83
16255;BME280;8235;52.198;9.904;2023-02-01T11:33:17;100491.78;;;6.33;76.17
16255;BME280;8235;52.198;9.904;2023-02-01T11:35:47;100483.84;;;6.33;76.31
16255;BME280;8235;52.198;9.904;2023-02-01T11:38:21;100479.47;;;6.32;76.51
16255;BME280;8235;52.198;9.904;2023-02-01T11:40:48;100467.97;;;6.33;76.63
16255;BME280;8235;52.198;9.904;2023-02-01T11:43:19;100454.69;;;6.34;76.35
16255;BME280;8235;52.198;9.904;2023-02-01T11:45:56;100449.53;;;6.31;76.19
16255;BME280;8235;52.198;9.904;2023-02-01T11:48:24;100449.38;;;6.34;75.93
16255;BME280;8235;52.198;9.904;2023-02-01T11:51:00;100441.59;;;6.31;76.16
16255;BME280;8235;52.198;9.904;2023-02-01T11:53:41;100445.16;;;6.30;76.10
16255;BME280;8235;52.198;9.904;2023-02-01T11:56:17;100437.25;;;6.30;76.09
16255;BME280;8235;52.198;9.904;2023-02-01T11:59:00;100427.50;;;6.31;76.43
16255;BME280;8235;52.198;9.904;2023-02-01T12:01:42;100416.06;;;6.30;76.77
16255;BME280;8235;52.198;9.904;2023-02-01T12:07:13;100406.34;;;6.31;76.83
16255;BME280;8235;52.198;9.904;2023-02-01T12:09:50;100401.06;;;6.31;77.43
16255;BME280;8235;52.198;9.904;2023-02-01T12:12:24;100386.06;;;6.31;77.12
16255;BME280;8235;52.198;9.904;2023-02-01T12:15:16;100366.84;;;6.27;77.12
16255;BME280;8235;52.198;9.904;2023-02-01T12:18:08;100368.53;;;6.28;77.24
16255;BME280;8235;52.198;9.904;2023-02-01T12:20:59;100368.53;;;6.28;77.57
16255;BME280;8235;52.198;9.904;2023-02-01T12:23:46;100355.31;;;6.28;77.27
16255;BME280;8235;52.198;9.904;2023-02-01T12:26:47;100340.38;;;6.27;77.55
16255;BME280;8235;52.198;9.904;2023-02-01T12:29:24;100337.75;;;6.27;77.72
16255;BME280;8235;52.198;9.904;2023-02-01T12:32:06;100323.28;;;6.35;77.43
16255;BME280;8235;52.198;9.904;2023-02-01T12:34:55;100322.13;;;6.40;77.35
16255;BME280;8235;52.198;9.904;2023-02-01T12:37:35;100307.03;;;6.42;77.14
16255;BME280;8235;52.198;9.904;2023-02-01T12:40:18;100322.13;;;6.40;77.44
16255;BME280;8235;52.198;9.904;2023-02-01T12:42:56;100286.72;;;6.43;76.97
16255;BME280;8235;52.198;9.904;2023-02-01T12:45:30;100294.03;;;6.38;76.85
16255;BME280;8235;52.198;9.904;2023-02-01T12:48:00;100311.78;;;6.36;77.49
16255;BME280;8235;52.198;9.904;2023-02-01T12:50:33;100308.56;;;6.29;77.64
16255;BME280;8235;52.198;9.904;2023-02-01T12:53:09;100323.91;;;6.22;78.95
16255;BME280;8235;52.198;9.904;2023-02-01T12:55:43;100304.63;;;6.20;79.54
16255;BME280;8235;52.198;9.904;2023-02-01T12:58:17;100291.63;;;6.16;79.71
16255;BME280;8235;52.198;9.904;2023-02-01T13:00:48;100307.56;;;6.14;80.86
16255;BME280;8235;52.198;9.904;2023-02-01T13:03:26;100302.69;;;6.07;81.47
16255;BME280;8235;52.198;9.904;2023-02-01T13:05:58;100285.25;;;6.03;82.52
16255;BME280;8235;52.198;9.904;2023-02-01T13:08:35;100301.19;;;6.01;82.98
16255;BME280;8235;52.198;9.904;2023-02-01T13:11:07;100297.63;;;6.02;83.18
16255;BME280;8235;52.198;9.904;2023-02-01T13:13:47;100267.63;;;6.03;83.67
16255;BME280;8235;52.198;9.904;2023-02-01T13:16:16;100280.06;;;6.01;84.84
16255;BME280;8235;52.198;9.904;2023-02-01T13:18:50;100265.97;;;6.01;85.06
16255;BME280;8235;52.198;9.904;2023-02-01T13:21:21;100274.75;;;6.01;85.12
16255;BME280;8235;52.198;9.904;2023-02-01T13:23:50;100269.69;;;5.97;84.96
16255;BME280;8235;52.198;9.904;2023-02-01T13:26:19;100282.84;;;5.98;85.00
16255;BME280;8235;52.198;9.904;2023-02-01T13:28:48;100277.78;;;5.93;84.84
16255;BME280;8235;52.198;9.904;2023-02-01T13:31:33;100287.75;;;5.88;84.82
16255;BME280;8235;52.198;9.904;2023-02-01T13:34:36;100292.59;;;5.79;85.42